sensor_id;sensor_type;location;lat;lon;timestamp;temperature;humidity
582;DHT22;277;50.074;8.436;2023-11-22T00:01:54;5.40;99.90
582;DHT22;277;50.074;8.436;2023-11-22T00:04:22;5.40;99.90
582;DHT22;277;50.074;8.436;2023-11-22T00:06:49;5.30;99.90
582;DHT22;277;50.074;8.436;2023-11-22T00:09:17;5.30;99.90
582;DHT22;277;50.074;8.436;2023-11-22T00:11:48;5.20;99.90
582;DHT22;277;50.074;8.436;2023-11-22T00:14:16;5.20;99.90
582;DHT22;277;50.074;8.436;2023-11-22T00:16:44;5.10;99.90
582;DHT22;277;50.074;8.436;2023-11-22T00:19:14;5.10;99.90
582;DHT22;277;50.074;8.436;2023-11-22T00:21:43;5.10;99.90
582;DHT22;277;50.074;8.436;2023-11-22T00:24:11;5.10;99.90
582;DHT22;277;50.074;8.436;2023-11-22T00:26:39;5.10;99.90
582;DHT22;277;50.074;8.436;2023-11-22T00:29:08;5.00;99.90
582;DHT22;277;50.074;8.436;2023-11-22T00:31:35;5.00;99.90
582;DHT22;277;50.074;8.436;2023-11-22T00:34:03;5.00;99.90
582;DHT22;277;50.074;8.436;2023-11-22T00:36:32;4.90;99.90
582;DHT22;277;50.074;8.436;2023-11-22T00:39:00;4.90;99.90
582;DHT22;277;50.074;8.436;2023-11-22T00:41:30;5.00;99.90
582;DHT22;277;50.074;8.436;2023-11-22T00:43:58;4.90;99.90
582;DHT22;277;50.074;8.436;2023-11-22T00:46:26;5.00;99.90
582;DHT22;277;50.074;8.436;2023-11-22T00:48:53;5.10;99.90
582;DHT22;277;50.074;8.436;2023-11-22T00:51:22;5.20;99.90
582;DHT22;277;50.074;8.436;2023-11-22T00:53:51;5.10;99.90
582;DHT22;277;50.074;8.436;2023-11-22T00:56:21;5.00;99.90
582;DHT22;277;50.074;8.436;2023-11-22T00:58:49;4.90;99.90
582;DHT22;277;50.074;8.436;2023-11-22T01:01:17;4.80;99.90
582;DHT22;277;50.074;8.436;2023-11-22T01:03:44;4.80;99.90
582;DHT22;277;50.074;8.436;2023-11-22T01:06:13;4.80;99.90
582;DHT22;277;50.074;8.436;2023-11-22T01:08:41;4.70;99.90
582;DHT22;277;50.074;8.436;2023-11-22T01:11:10;4.70;99.90
582;DHT22;277;50.074;8.436;2023-11-22T01:13:38;4.80;99.90
582;DHT22;277;50.074;8.436;2023-11-22T01:16:09;4.80;99.90
582;DHT22;277;50.074;8.436;2023-11-22T01:18:37;4.70;99.90
582;DHT22;277;50.074;8.436;2023-11-22T01:21:06;4.80;99.90
582;DHT22;277;50.074;8.436;2023-11-22T01:23:34;4.80;99.90
582;DHT22;277;50.074;8.436;2023-11-22T01:26:02;5.00;99.90
582;DHT22;277;50.074;8.436;2023-11-22T01:28:33;4.90;99.90
582;DHT22;277;50.074;8.436;2023-11-22T01:31:01;4.80;99.90
582;DHT22;277;50.074;8.436;2023-11-22T01:33:29;4.70;99.90
582;DHT22;277;50.074;8.436;2023-11-22T01:35:58;4.70;99.90
582;DHT22;277;50.074;8.436;2023-11-22T01:38:26;4.60;99.90
582;DHT22;277;50.074;8.436;2023-11-22T01:40:54;4.60;99.90
582;DHT22;277;50.074;8.436;2023-11-22T01:43:22;4.50;99.90
582;DHT22;277;50.074;8.436;2023-11-22T01:45:53;4.50;99.90
582;DHT22;277;50.074;8.436;2023-11-22T01:48:21;4.40;99.90
582;DHT22;277;50.074;8.436;2023-11-22T01:50:49;4.40;99.90
582;DHT22;277;50.074;8.436;2023-11-22T01:53:17;4.40;99.90
582;DHT22;277;50.074;8.436;2023-11-22T01:55:48;4.30;99.90
582;DHT22;277;50.074;8.436;2023-11-22T01:58:16;4.30;99.90
582;DHT22;277;50.074;8.436;2023-11-22T02:00:45;4.30;99.90
582;DHT22;277;50.074;8.436;2023-11-22T02:03:15;4.40;99.90
582;DHT22;277;50.074;8.436;2023-11-22T02:05:43;4.30;99.90
582;DHT22;277;50.074;8.436;2023-11-22T02:08:12;4.30;99.90
582;DHT22;277;50.074;8.436;2023-11-22T02:10:40;4.30;99.90
582;DHT22;277;50.074;8.436;2023-11-22T02:13:08;4.30;99.90
582;DHT22;277;50.074;8.436;2023-11-22T02:15:37;4.30;99.90
582;DHT22;277;50.074;8.436;2023-11-22T02:18:05;4.30;99.90
582;DHT22;277;50.074;8.436;2023-11-22T02:20:40;4.20;99.90
582;DHT22;277;50.074;8.436;2023-11-22T02:23:10;4.10;99.90
582;DHT22;277;50.074;8.436;2023-11-22T02:25:38;4.10;99.90
582;DHT22;277;50.074;8.436;2023-11-22T02:28:06;4.10;99.90
582;DHT22;277;50.074;8.436;2023-11-22T02:30:35;4.20;99.90
582;DHT22;277;50.074;8.436;2023-11-22T02:33:03;4.20;99.90
582;DHT22;277;50.074;8.436;2023-11-22T02:35:31;4.20;99.90
582;DHT22;277;50.074;8.436;2023-11-22T02:38:00;4.20;99.90
582;DHT22;277;50.074;8.436;2023-11-22T02:40:29;4.10;99.90
582;DHT22;277;50.074;8.436;2023-11-22T02:42:57;4.10;99.90
582;DHT22;277;50.074;8.436;2023-11-22T02:45:25;4.10;99.90
582;DHT22;277;50.074;8.436;2023-11-22T02:47:53;4.20;99.90
582;DHT22;277;50.074;8.436;2023-11-22T02:50:21;4.20;99.90
582;DHT22;277;50.074;8.436;2023-11-22T02:52:49;4.20;99.90
582;DHT22;277;50.074;8.436;2023-11-22T02:55:17;4.30;99.90
582;DHT22;277;50.074;8.436;2023-11-22T02:57:46;4.30;99.90
582;DHT22;277;50.074;8.436;2023-11-22T03:00:14;4.30;99.90
582;DHT22;277;50.074;8.436;2023-11-22T03:02:42;4.40;99.90
582;DHT22;277;50.074;8.436;2023-11-22T03:05:10;4.30;99.90
582;DHT22;277;50.074;8.436;2023-11-22T03:07:39;4.10;99.90
582;DHT22;277;50.074;8.436;2023-11-22T03:10:07;4.00;99.90
582;DHT22;277;50.074;8.436;2023-11-22T03:12:35;4.10;99.90
582;DHT22;277;50.074;8.436;2023-11-22T03:15:06;4.00;99.90
582;DHT22;277;50.074;8.436;2023-11-22T03:17:33;4.20;99.90
582;DHT22;277;50.074;8.436;2023-11-22T03:20:01;4.10;99.90
582;DHT22;277;50.074;8.436;2023-11-22T03:22:29;4.10;99.90
582;DHT22;277;50.074;8.436;2023-11-22T03:24:57;4.20;99.90
582;DHT22;277;50.074;8.436;2023-11-22T03:27:26;4.10;99.90
582;DHT22;277;50.074;8.436;2023-11-22T03:29:54;4.40;99.90
582;DHT22;277;50.074;8.436;2023-11-22T03:32:23;4.60;99.90
582;DHT22;277;50.074;8.436;2023-11-22T03:34:51;4.60;99.90
582;DHT22;277;50.074;8.436;2023-11-22T03:37:19;4.90;99.90
582;DHT22;277;50.074;8.436;2023-11-22T03:39:46;4.60;99.90
582;DHT22;277;50.074;8.436;2023-11-22T03:42:15;4.50;99.90
582;DHT22;277;50.074;8.436;2023-11-22T03:44:43;4.60;99.90
582;DHT22;277;50.074;8.436;2023-11-22T03:47:11;4.80;99.90
582;DHT22;277;50.074;8.436;2023-11-22T03:49:41;4.80;99.90
582;DHT22;277;50.074;8.436;2023-11-22T03:52:09;4.70;99.90
582;DHT22;277;50.074;8.436;2023-11-22T03:54:38;4.60;99.90
582;DHT22;277;50.074;8.436;2023-11-22T03:57:06;4.40;99.90
582;DHT22;277;50.074;8.436;2023-11-22T03:59:34;4.20;99.90
582;DHT22;277;50.074;8.436;2023-11-22T04:02:02;4.10;99.90
582;DHT22;277;50.074;8.436;2023-11-22T04:04:30;4.00;99.90
582;DHT22;277;50.074;8.436;2023-11-22T04:06:59;3.90;99.90
582;DHT22;277;50.074;8.436;2023-11-22T04:09:27;4.10;99.90
582;DHT22;277;50.074;8.436;2023-11-22T04:11:56;4.10;99.90
582;DHT22;277;50.074;8.436;2023-11-22T04:14:23;4.00;99.90
582;DHT22;277;50.074;8.436;2023-11-22T04:16:54;4.00;99.90
582;DHT22;277;50.074;8.436;2023-11-22T04:19:22;4.20;99.90
582;DHT22;277;50.074;8.436;2023-11-22T04:21:50;4.30;99.90
582;DHT22;277;50.074;8.436;2023-11-22T04:24:19;4.30;99.90
582;DHT22;277;50.074;8.436;2023-11-22T04:26:47;4.50;99.90
582;DHT22;277;50.074;8.436;2023-11-22T04:29:15;4.80;99.90
582;DHT22;277;50.074;8.436;2023-11-22T04:31:43;4.80;99.90
582;DHT22;277;50.074;8.436;2023-11-22T04:34:11;5.00;99.90
582;DHT22;277;50.074;8.436;2023-11-22T04:36:39;5.00;99.90
582;DHT22;277;50.074;8.436;2023-11-22T04:39:07;5.10;99.90
582;DHT22;277;50.074;8.436;2023-11-22T04:41:36;5.30;99.90
582;DHT22;277;50.074;8.436;2023-11-22T04:44:04;5.40;99.90
582;DHT22;277;50.074;8.436;2023-11-22T04:46:31;5.30;99.90
582;DHT22;277;50.074;8.436;2023-11-22T04:48:59;5.20;99.90
582;DHT22;277;50.074;8.436;2023-11-22T04:51:27;5.20;99.90
582;DHT22;277;50.074;8.436;2023-11-22T04:53:56;5.20;99.90
582;DHT22;277;50.074;8.436;2023-11-22T04:56:24;5.20;99.90
582;DHT22;277;50.074;8.436;2023-11-22T04:58:53;5.20;99.90
582;DHT22;277;50.074;8.436;2023-11-22T05:01:21;5.20;99.90
582;DHT22;277;50.074;8.436;2023-11-22T05:03:50;5.20;99.90
582;DHT22;277;50.074;8.436;2023-11-22T05:06:18;5.10;99.90
582;DHT22;277;50.074;8.436;2023-11-22T05:08:46;5.00;99.90
582;DHT22;277;50.074;8.436;2023-11-22T05:11:13;4.90;99.90
582;DHT22;277;50.074;8.436;2023-11-22T05:13:42;5.00;99.90
582;DHT22;277;50.074;8.436;2023-11-22T05:16:11;4.90;99.90
582;DHT22;277;50.074;8.436;2023-11-22T05:18:40;4.80;99.90
582;DHT22;277;50.074;8.436;2023-11-22T05:21:08;4.80;99.90
582;DHT22;277;50.074;8.436;2023-11-22T05:23:36;4.70;99.90
582;DHT22;277;50.074;8.436;2023-11-22T05:26:04;4.70;99.90
582;DHT22;277;50.074;8.436;2023-11-22T05:28:32;4.50;99.90
582;DHT22;277;50.074;8.436;2023-11-22T05:31:00;4.10;99.90
582;DHT22;277;50.074;8.436;2023-11-22T05:33:29;4.10;99.90
582;DHT22;277;50.074;8.436;2023-11-22T05:35:58;4.00;99.90
582;DHT22;277;50.074;8.436;2023-11-22T05:38:26;3.60;99.90
582;DHT22;277;50.074;8.436;2023-11-22T05:40:54;3.60;99.90
582;DHT22;277;50.074;8.436;2023-11-22T05:43:22;3.40;99.90
582;DHT22;277;50.074;8.436;2023-11-22T05:45:53;3.20;99.90
582;DHT22;277;50.074;8.436;2023-11-22T05:48:21;3.00;99.90
582;DHT22;277;50.074;8.436;2023-11-22T05:50:50;2.90;99.90
582;DHT22;277;50.074;8.436;2023-11-22T05:53:18;2.80;99.90
582;DHT22;277;50.074;8.436;2023-11-22T05:55:47;2.70;99.90
582;DHT22;277;50.074;8.436;2023-11-22T05:58:15;2.60;99.90
582;DHT22;277;50.074;8.436;2023-11-22T06:00:43;2.60;99.90
582;DHT22;277;50.074;8.436;2023-11-22T06:03:12;2.50;99.90
582;DHT22;277;50.074;8.436;2023-11-22T06:05:40;2.50;99.90
582;DHT22;277;50.074;8.436;2023-11-22T06:08:09;2.50;99.90
582;DHT22;277;50.074;8.436;2023-11-22T06:10:37;2.50;99.90
582;DHT22;277;50.074;8.436;2023-11-22T06:13:08;2.50;99.90
582;DHT22;277;50.074;8.436;2023-11-22T06:15:37;2.50;99.90
582;DHT22;277;50.074;8.436;2023-11-22T06:18:04;2.40;99.90
582;DHT22;277;50.074;8.436;2023-11-22T06:20:32;2.40;99.90
582;DHT22;277;50.074;8.436;2023-11-22T06:23:00;2.30;99.90
582;DHT22;277;50.074;8.436;2023-11-22T06:25:30;2.30;99.90
582;DHT22;277;50.074;8.436;2023-11-22T06:27:58;2.30;99.90
582;DHT22;277;50.074;8.436;2023-11-22T06:30:29;2.30;99.90
582;DHT22;277;50.074;8.436;2023-11-22T06:32:57;2.20;99.90
582;DHT22;277;50.074;8.436;2023-11-22T06:35:25;2.20;99.90
582;DHT22;277;50.074;8.436;2023-11-22T06:37:53;2.20;99.90
582;DHT22;277;50.074;8.436;2023-11-22T06:40:21;2.30;99.90
582;DHT22;277;50.074;8.436;2023-11-22T06:42:50;2.20;99.90
582;DHT22;277;50.074;8.436;2023-11-22T06:45:19;2.20;99.90
582;DHT22;277;50.074;8.436;2023-11-22T06:47:47;2.10;99.90
582;DHT22;277;50.074;8.436;2023-11-22T06:50:17;2.10;99.90
582;DHT22;277;50.074;8.436;2023-11-22T06:52:44;2.10;99.90
582;DHT22;277;50.074;8.436;2023-11-22T06:55:15;2.10;99.90
582;DHT22;277;50.074;8.436;2023-11-22T06:57:44;2.10;99.90
582;DHT22;277;50.074;8.436;2023-11-22T07:00:13;2.10;99.90
582;DHT22;277;50.074;8.436;2023-11-22T07:02:43;2.00;99.90
582;DHT22;277;50.074;8.436;2023-11-22T07:05:11;2.10;99.90
582;DHT22;277;50.074;8.436;2023-11-22T07:07:39;2.00;99.90
582;DHT22;277;50.074;8.436;2023-11-22T07:10:07;2.00;99.90
582;DHT22;277;50.074;8.436;2023-11-22T07:12:35;2.00;99.90
582;DHT22;277;50.074;8.436;2023-11-22T07:15:03;2.00;99.90
582;DHT22;277;50.074;8.436;2023-11-22T07:17:33;2.10;99.90
582;DHT22;277;50.074;8.436;2023-11-22T07:20:01;2.10;99.90
582;DHT22;277;50.074;8.436;2023-11-22T07:22:35;2.10;99.90
582;DHT22;277;50.074;8.436;2023-11-22T07:25:03;2.10;99.90
582;DHT22;277;50.074;8.436;2023-11-22T07:27:31;2.10;99.90
582;DHT22;277;50.074;8.436;2023-11-22T07:29:59;2.10;99.90
582;DHT22;277;50.074;8.436;2023-11-22T07:32:27;2.10;99.90
582;DHT22;277;50.074;8.436;2023-11-22T07:34:57;2.20;99.90
582;DHT22;277;50.074;8.436;2023-11-22T07:37:30;2.20;99.90
582;DHT22;277;50.074;8.436;2023-11-22T07:39:58;2.20;99.90
582;DHT22;277;50.074;8.436;2023-11-22T07:42:26;2.30;99.90
582;DHT22;277;50.074;8.436;2023-11-22T07:44:54;2.30;99.90
582;DHT22;277;50.074;8.436;2023-11-22T07:47:23;2.20;99.90
582;DHT22;277;50.074;8.436;2023-11-22T07:49:51;2.30;99.90
582;DHT22;277;50.074;8.436;2023-11-22T07:52:20;2.40;99.90
582;DHT22;277;50.074;8.436;2023-11-22T07:54:47;2.40;99.90
582;DHT22;277;50.074;8.436;2023-11-22T07:57:15;2.50;99.90
582;DHT22;277;50.074;8.436;2023-11-22T07:59:46;2.60;99.90
582;DHT22;277;50.074;8.436;2023-11-22T08:02:14;2.70;99.90
582;DHT22;277;50.074;8.436;2023-11-22T08:04:45;2.80;99.90
582;DHT22;277;50.074;8.436;2023-11-22T08:07:14;3.00;99.90
582;DHT22;277;50.074;8.436;2023-11-22T08:09:44;3.00;99.90
582;DHT22;277;50.074;8.436;2023-11-22T08:12:12;2.90;99.90
582;DHT22;277;50.074;8.436;2023-11-22T08:14:40;2.80;99.90
582;DHT22;277;50.074;8.436;2023-11-22T08:17:09;2.70;99.90
582;DHT22;277;50.074;8.436;2023-11-22T08:19:38;2.60;99.90
582;DHT22;277;50.074;8.436;2023-11-22T08:22:06;2.50;99.90
582;DHT22;277;50.074;8.436;2023-11-22T08:24:34;2.40;99.90
582;DHT22;277;50.074;8.436;2023-11-22T08:27:04;2.30;99.90
582;DHT22;277;50.074;8.436;2023-11-22T08:29:33;2.20;99.90
582;DHT22;277;50.074;8.436;2023-11-22T08:32:02;2.30;99.90
582;DHT22;277;50.074;8.436;2023-11-22T08:34:30;2.20;99.90
582;DHT22;277;50.074;8.436;2023-11-22T08:36:57;2.30;99.90
582;DHT22;277;50.074;8.436;2023-11-22T08:39:26;2.30;99.90
582;DHT22;277;50.074;8.436;2023-11-22T08:41:54;2.40;99.90
582;DHT22;277;50.074;8.436;2023-11-22T08:44:23;2.50;99.90
582;DHT22;277;50.074;8.436;2023-11-22T08:46:51;2.60;99.90
582;DHT22;277;50.074;8.436;2023-11-22T08:49:19;2.60;99.90
582;DHT22;277;50.074;8.436;2023-11-22T08:51:47;2.60;99.90
582;DHT22;277;50.074;8.436;2023-11-22T08:54:14;2.60;99.90
582;DHT22;277;50.074;8.436;2023-11-22T08:56:43;2.70;99.90
582;DHT22;277;50.074;8.436;2023-11-22T08:59:13;2.70;99.90
582;DHT22;277;50.074;8.436;2023-11-22T09:01:44;2.70;99.90
582;DHT22;277;50.074;8.436;2023-11-22T09:04:12;2.70;99.90
582;DHT22;277;50.074;8.436;2023-11-22T09:06:40;2.70;99.90
582;DHT22;277;50.074;8.436;2023-11-22T09:09:07;2.80;99.90
582;DHT22;277;50.074;8.436;2023-11-22T09:11:35;2.80;99.90
582;DHT22;277;50.074;8.436;2023-11-22T09:14:03;3.00;99.90
582;DHT22;277;50.074;8.436;2023-11-22T09:16:34;3.10;99.90
582;DHT22;277;50.074;8.436;2023-11-22T09:19:03;3.10;99.90
582;DHT22;277;50.074;8.436;2023-11-22T09:21:33;3.10;99.90
582;DHT22;277;50.074;8.436;2023-11-22T09:24:01;3.00;99.90
582;DHT22;277;50.074;8.436;2023-11-22T09:26:32;3.10;99.90
582;DHT22;277;50.074;8.436;2023-11-22T09:29:00;3.10;99.90
582;DHT22;277;50.074;8.436;2023-11-22T09:31:28;3.20;99.90
582;DHT22;277;50.074;8.436;2023-11-22T09:33:56;3.30;99.90
582;DHT22;277;50.074;8.436;2023-11-22T09:36:25;3.30;99.90
582;DHT22;277;50.074;8.436;2023-11-22T09:38:54;3.30;99.90
582;DHT22;277;50.074;8.436;2023-11-22T09:41:22;3.30;99.90
582;DHT22;277;50.074;8.436;2023-11-22T09:43:51;3.50;99.90
582;DHT22;277;50.074;8.436;2023-11-22T09:46:20;3.80;99.90
582;DHT22;277;50.074;8.436;2023-11-22T09:48:50;3.70;99.90
582;DHT22;277;50.074;8.436;2023-11-22T09:51:23;3.60;99.90
582;DHT22;277;50.074;8.436;2023-11-22T09:53:56;3.60;99.90
582;DHT22;277;50.074;8.436;2023-11-22T09:56:25;3.70;99.90
582;DHT22;277;50.074;8.436;2023-11-22T09:58:53;3.80;99.90
582;DHT22;277;50.074;8.436;2023-11-22T10:01:23;4.00;99.90
582;DHT22;277;50.074;8.436;2023-11-22T10:03:51;4.10;99.90
582;DHT22;277;50.074;8.436;2023-11-22T10:06:19;3.90;99.90
582;DHT22;277;50.074;8.436;2023-11-22T10:08:47;3.80;99.90
582;DHT22;277;50.074;8.436;2023-11-22T10:11:16;3.70;99.90
582;DHT22;277;50.074;8.436;2023-11-22T10:13:46;3.50;99.90
582;DHT22;277;50.074;8.436;2023-11-22T10:16:16;3.50;99.90
582;DHT22;277;50.074;8.436;2023-11-22T10:18:44;3.50;99.90
582;DHT22;277;50.074;8.436;2023-11-22T10:21:18;3.40;99.90
582;DHT22;277;50.074;8.436;2023-11-22T10:23:46;3.40;99.90
582;DHT22;277;50.074;8.436;2023-11-22T10:26:16;3.40;99.90
582;DHT22;277;50.074;8.436;2023-11-22T10:28:44;3.50;99.90
582;DHT22;277;50.074;8.436;2023-11-22T10:31:12;3.40;99.90
582;DHT22;277;50.074;8.436;2023-11-22T10:33:40;3.60;99.90
582;DHT22;277;50.074;8.436;2023-11-22T10:36:09;3.90;99.90
582;DHT22;277;50.074;8.436;2023-11-22T10:38:38;4.20;99.90
582;DHT22;277;50.074;8.436;2023-11-22T10:41:06;4.40;99.90
582;DHT22;277;50.074;8.436;2023-11-22T10:43:36;4.50;99.90
582;DHT22;277;50.074;8.436;2023-11-22T10:46:04;4.40;99.90
582;DHT22;277;50.074;8.436;2023-11-22T10:48:33;4.30;99.90
582;DHT22;277;50.074;8.436;2023-11-22T10:51:01;4.10;99.90
582;DHT22;277;50.074;8.436;2023-11-22T10:53:31;4.00;99.90
582;DHT22;277;50.074;8.436;2023-11-22T10:56:03;4.10;99.90
582;DHT22;277;50.074;8.436;2023-11-22T10:58:33;4.40;99.90
582;DHT22;277;50.074;8.436;2023-11-22T11:01:05;4.90;99.90
582;DHT22;277;50.074;8.436;2023-11-22T11:03:34;5.10;99.90
582;DHT22;277;50.074;8.436;2023-11-22T11:06:07;5.10;99.90
582;DHT22;277;50.074;8.436;2023-11-22T11:08:37;5.20;99.90
582;DHT22;277;50.074;8.436;2023-11-22T11:11:05;5.30;99.90
582;DHT22;277;50.074;8.436;2023-11-22T11:13:33;5.30;99.90
582;DHT22;277;50.074;8.436;2023-11-22T11:16:01;5.40;99.90
582;DHT22;277;50.074;8.436;2023-11-22T11:18:30;5.60;99.90
582;DHT22;277;50.074;8.436;2023-11-22T11:20:59;5.50;99.90
582;DHT22;277;50.074;8.436;2023-11-22T11:23:34;5.70;99.90
582;DHT22;277;50.074;8.436;2023-11-22T11:26:09;5.70;99.90
582;DHT22;277;50.074;8.436;2023-11-22T11:28:41;5.80;99.90
582;DHT22;277;50.074;8.436;2023-11-22T11:31:09;6.10;99.90
582;DHT22;277;50.074;8.436;2023-11-22T11:33:52;6.30;99.90
582;DHT22;277;50.074;8.436;2023-11-22T11:36:20;6.90;99.90
582;DHT22;277;50.074;8.436;2023-11-22T11:38:48;6.90;99.90
582;DHT22;277;50.074;8.436;2023-11-22T11:41:17;6.70;99.90
582;DHT22;277;50.074;8.436;2023-11-22T11:43:45;6.50;99.90
582;DHT22;277;50.074;8.436;2023-11-22T11:46:13;6.30;99.90
582;DHT22;277;50.074;8.436;2023-11-22T11:48:42;6.20;99.90
582;DHT22;277;50.074;8.436;2023-11-22T11:51:14;6.40;99.90
582;DHT22;277;50.074;8.436;2023-11-22T11:53:43;6.60;99.90
582;DHT22;277;50.074;8.436;2023-11-22T11:56:11;6.90;99.90
582;DHT22;277;50.074;8.436;2023-11-22T11:58:40;7.00;99.90
582;DHT22;277;50.074;8.436;2023-11-22T12:01:08;6.90;99.90
582;DHT22;277;50.074;8.436;2023-11-22T12:03:37;7.00;99.90
582;DHT22;277;50.074;8.436;2023-11-22T12:06:06;7.00;99.90
582;DHT22;277;50.074;8.436;2023-11-22T12:08:35;7.20;99.90
582;DHT22;277;50.074;8.436;2023-11-22T12:11:03;7.00;99.90
582;DHT22;277;50.074;8.436;2023-11-22T12:13:34;6.80;99.90
582;DHT22;277;50.074;8.436;2023-11-22T12:16:05;6.50;99.90
582;DHT22;277;50.074;8.436;2023-11-22T12:18:40;6.10;99.90
582;DHT22;277;50.074;8.436;2023-11-22T12:21:09;5.90;99.90
582;DHT22;277;50.074;8.436;2023-11-22T12:23:41;5.80;99.90
582;DHT22;277;50.074;8.436;2023-11-22T12:26:10;5.70;99.90
582;DHT22;277;50.074;8.436;2023-11-22T12:28:39;5.60;99.90
582;DHT22;277;50.074;8.436;2023-11-22T12:31:18;5.40;99.90
582;DHT22;277;50.074;8.436;2023-11-22T12:33:47;5.30;99.90
582;DHT22;277;50.074;8.436;2023-11-22T12:36:18;5.30;99.90
582;DHT22;277;50.074;8.436;2023-11-22T12:38:47;5.30;99.90
582;DHT22;277;50.074;8.436;2023-11-22T12:41:15;5.30;99.90
582;DHT22;277;50.074;8.436;2023-11-22T12:43:44;5.30;99.90
582;DHT22;277;50.074;8.436;2023-11-22T12:46:28;5.30;99.90
582;DHT22;277;50.074;8.436;2023-11-22T12:49:11;5.40;99.90
582;DHT22;277;50.074;8.436;2023-11-22T12:51:44;5.30;99.90
582;DHT22;277;50.074;8.436;2023-11-22T12:54:14;5.20;99.90
582;DHT22;277;50.074;8.436;2023-11-22T12:56:42;5.20;99.90
582;DHT22;277;50.074;8.436;2023-11-22T12:59:10;5.20;99.90
582;DHT22;277;50.074;8.436;2023-11-22T13:01:38;5.20;99.90
582;DHT22;277;50.074;8.436;2023-11-22T13:04:07;5.30;99.90
582;DHT22;277;50.074;8.436;2023-11-22T13:06:35;5.30;99.90
582;DHT22;277;50.074;8.436;2023-11-22T13:09:03;5.20;99.90
582;DHT22;277;50.074;8.436;2023-11-22T13:11:32;5.00;99.90
582;DHT22;277;50.074;8.436;2023-11-22T13:14:00;5.00;99.90
582;DHT22;277;50.074;8.436;2023-11-22T13:16:28;5.10;99.90
582;DHT22;277;50.074;8.436;2023-11-22T13:18:55;5.20;99.90
582;DHT22;277;50.074;8.436;2023-11-22T13:21:23;5.30;99.90
582;DHT22;277;50.074;8.436;2023-11-22T13:23:51;5.20;99.90
582;DHT22;277;50.074;8.436;2023-11-22T13:26:19;5.20;99.90
582;DHT22;277;50.074;8.436;2023-11-22T13:28:49;5.10;99.90
582;DHT22;277;50.074;8.436;2023-11-22T13:31:18;5.10;99.90
582;DHT22;277;50.074;8.436;2023-11-22T13:33:46;5.00;99.90
582;DHT22;277;50.074;8.436;2023-11-22T13:36:13;5.00;99.90
582;DHT22;277;50.074;8.436;2023-11-22T13:38:41;5.00;99.90
582;DHT22;277;50.074;8.436;2023-11-22T13:41:09;5.00;99.90
582;DHT22;277;50.074;8.436;2023-11-22T13:43:37;5.00;99.90
582;DHT22;277;50.074;8.436;2023-11-22T13:46:07;5.00;99.90
582;DHT22;277;50.074;8.436;2023-11-22T13:48:37;4.90;99.90
582;DHT22;277;50.074;8.436;2023-11-22T13:51:04;4.80;99.90
582;DHT22;277;50.074;8.436;2023-11-22T13:53:37;4.80;99.90
582;DHT22;277;50.074;8.436;2023-11-22T13:56:10;4.70;99.90
582;DHT22;277;50.074;8.436;2023-11-22T13:58:40;4.60;99.90
582;DHT22;277;50.074;8.436;2023-11-22T14:01:09;4.70;99.90
582;DHT22;277;50.074;8.436;2023-11-22T14:03:41;4.60;99.90
582;DHT22;277;50.074;8.436;2023-11-22T14:06:10;4.70;99.90
582;DHT22;277;50.074;8.436;2023-11-22T14:08:40;4.70;99.90
582;DHT22;277;50.074;8.436;2023-11-22T14:11:08;4.70;99.90
582;DHT22;277;50.074;8.436;2023-11-22T14:13:36;4.70;99.90
582;DHT22;277;50.074;8.436;2023-11-22T14:16:06;4.60;99.90
582;DHT22;277;50.074;8.436;2023-11-22T14:18:36;4.60;99.90
582;DHT22;277;50.074;8.436;2023-11-22T14:21:05;4.60;99.90
582;DHT22;277;50.074;8.436;2023-11-22T14:23:33;4.60;99.90
582;DHT22;277;50.074;8.436;2023-11-22T14:26:01;4.60;99.90
582;DHT22;277;50.074;8.436;2023-11-22T14:28:29;4.60;99.90
582;DHT22;277;50.074;8.436;2023-11-22T14:30:57;4.50;99.90
582;DHT22;277;50.074;8.436;2023-11-22T14:33:25;4.50;99.90
582;DHT22;277;50.074;8.436;2023-11-22T14:35:54;4.50;99.90
582;DHT22;277;50.074;8.436;2023-11-22T14:38:22;4.50;99.90
582;DHT22;277;50.074;8.436;2023-11-22T14:40:51;4.60;99.90
582;DHT22;277;50.074;8.436;2023-11-22T14:43:19;4.60;99.90
582;DHT22;277;50.074;8.436;2023-11-22T14:45:46;4.50;99.90
582;DHT22;277;50.074;8.436;2023-11-22T14:48:14;4.30;99.90
582;DHT22;277;50.074;8.436;2023-11-22T14:50:44;4.20;99.90
582;DHT22;277;50.074;8.436;2023-11-22T14:53:14;4.10;99.90
582;DHT22;277;50.074;8.436;2023-11-22T14:55:43;4.10;99.90
582;DHT22;277;50.074;8.436;2023-11-22T14:58:11;4.00;99.90
582;DHT22;277;50.074;8.436;2023-11-22T15:00:38;3.90;99.90
582;DHT22;277;50.074;8.436;2023-11-22T15:03:06;3.90;99.90
582;DHT22;277;50.074;8.436;2023-11-22T15:05:34;3.80;99.90
582;DHT22;277;50.074;8.436;2023-11-22T15:08:02;3.70;99.90
582;DHT22;277;50.074;8.436;2023-11-22T15:10:31;3.70;99.90
582;DHT22;277;50.074;8.436;2023-11-22T15:12:59;3.80;99.90
582;DHT22;277;50.074;8.436;2023-11-22T15:15:29;3.80;99.90
582;DHT22;277;50.074;8.436;2023-11-22T15:17:57;3.80;99.90
582;DHT22;277;50.074;8.436;2023-11-22T15:20:25;3.80;99.90
582;DHT22;277;50.074;8.436;2023-11-22T15:22:52;3.80;99.90
582;DHT22;277;50.074;8.436;2023-11-22T15:25:20;3.70;99.90
582;DHT22;277;50.074;8.436;2023-11-22T15:27:49;3.60;99.90
582;DHT22;277;50.074;8.436;2023-11-22T15:30:17;3.40;99.90
582;DHT22;277;50.074;8.436;2023-11-22T15:32:46;3.40;99.90
582;DHT22;277;50.074;8.436;2023-11-22T15:35:14;3.40;99.90
582;DHT22;277;50.074;8.436;2023-11-22T15:37:42;3.50;99.90
582;DHT22;277;50.074;8.436;2023-11-22T15:40:10;3.50;99.90
582;DHT22;277;50.074;8.436;2023-11-22T15:42:39;3.50;99.90
582;DHT22;277;50.074;8.436;2023-11-22T15:45:09;3.50;99.90
582;DHT22;277;50.074;8.436;2023-11-22T15:47:37;3.50;99.90
582;DHT22;277;50.074;8.436;2023-11-22T15:50:05;3.60;99.90
582;DHT22;277;50.074;8.436;2023-11-22T15:52:34;3.60;99.90
582;DHT22;277;50.074;8.436;2023-11-22T15:55:03;3.60;99.90
582;DHT22;277;50.074;8.436;2023-11-22T15:57:31;3.60;99.90
582;DHT22;277;50.074;8.436;2023-11-22T15:59:59;3.60;99.90
582;DHT22;277;50.074;8.436;2023-11-22T16:02:28;3.60;99.90
582;DHT22;277;50.074;8.436;2023-11-22T16:04:56;3.60;99.90
582;DHT22;277;50.074;8.436;2023-11-22T16:07:24;3.60;99.90
582;DHT22;277;50.074;8.436;2023-11-22T16:09:52;3.60;99.90
582;DHT22;277;50.074;8.436;2023-11-22T16:12:20;3.60;99.90
582;DHT22;277;50.074;8.436;2023-11-22T16:14:48;3.60;99.90
582;DHT22;277;50.074;8.436;2023-11-22T16:17:16;3.60;99.90
582;DHT22;277;50.074;8.436;2023-11-22T16:19:47;3.60;99.90
582;DHT22;277;50.074;8.436;2023-11-22T16:22:14;3.60;99.90
582;DHT22;277;50.074;8.436;2023-11-22T16:24:42;3.70;99.90
582;DHT22;277;50.074;8.436;2023-11-22T16:27:12;3.70;99.90
582;DHT22;277;50.074;8.436;2023-11-22T16:29:40;3.70;99.90
582;DHT22;277;50.074;8.436;2023-11-22T16:32:07;3.70;99.90
582;DHT22;277;50.074;8.436;2023-11-22T16:34:35;3.70;99.90
582;DHT22;277;50.074;8.436;2023-11-22T16:37:04;3.70;99.90
582;DHT22;277;50.074;8.436;2023-11-22T16:39:33;3.60;99.90
582;DHT22;277;50.074;8.436;2023-11-22T16:42:01;3.50;99.90
582;DHT22;277;50.074;8.436;2023-11-22T16:44:30;3.40;99.90
582;DHT22;277;50.074;8.436;2023-11-22T16:46:58;3.40;99.90
582;DHT22;277;50.074;8.436;2023-11-22T16:49:27;3.40;99.90
582;DHT22;277;50.074;8.436;2023-11-22T16:51:55;3.40;99.90
582;DHT22;277;50.074;8.436;2023-11-22T16:54:24;3.30;99.90
582;DHT22;277;50.074;8.436;2023-11-22T16:56:52;3.30;99.90
582;DHT22;277;50.074;8.436;2023-11-22T16:59:19;3.30;99.90
582;DHT22;277;50.074;8.436;2023-11-22T17:01:47;3.30;99.90